createdAt,value
2022-12-12T00:02:23.786Z,0.29
2022-12-12T00:07:26.263Z,0.35
2022-12-12T00:17:58.824Z,0.25
2022-12-12T00:23:01.256Z,0.24
2022-12-12T00:28:03.809Z,0.26
2022-12-12T00:33:06.405Z,0.17
2022-12-12T00:38:09.178Z,0.13
2022-12-12T00:43:11.477Z,0.17
2022-12-12T00:48:14.119Z,0.22
2022-12-12T00:53:16.700Z,0.27
2022-12-12T00:58:19.367Z,0.31
2022-12-12T01:03:22.219Z,0.24
2022-12-12T01:08:25.081Z,0.18
2022-12-12T01:13:27.600Z,0.19
2022-12-12T01:18:30.150Z,0.13
2022-12-12T01:23:32.456Z,0.24
2022-12-12T01:28:35.499Z,0.18
2022-12-12T01:33:38.160Z,0.27
2022-12-12T01:38:43.803Z,0.31
2022-12-12T01:43:49.889Z,0.28
2022-12-12T01:54:23.436Z,0.42
2022-12-12T01:59:26.405Z,0.33
2022-12-12T02:04:29.708Z,0.32
2022-12-12T02:09:37.982Z,0.37
2022-12-12T02:14:41.483Z,0.47
2022-12-12T02:19:44.851Z,0.48
2022-12-12T02:24:50.811Z,0.48
2022-12-12T02:29:54.239Z,0.3
2022-12-12T02:34:57.415Z,0.31
2022-12-12T02:40:02.079Z,0.37
2022-12-12T02:45:05.312Z,0.43
2022-12-12T02:50:08.867Z,0.46
2022-12-12T02:55:11.867Z,0.57
2022-12-12T03:00:14.822Z,0.56
2022-12-12T03:05:26.653Z,0.62
2022-12-12T03:10:33.405Z,0.71
2022-12-12T03:15:39.600Z,0.72
2022-12-12T03:20:42.152Z,0.69
2022-12-12T03:25:44.748Z,0.84
2022-12-12T03:30:48.376Z,0.85
2022-12-12T03:35:51.836Z,1
2022-12-12T03:40:55.008Z,1.13
2022-12-12T03:46:02.516Z,1.13
2022-12-12T03:51:08.782Z,1.05
2022-12-12T03:56:12.317Z,1.17
2022-12-12T04:01:16.538Z,1.22
2022-12-12T04:06:20.509Z,1.35
2022-12-12T04:11:23.713Z,1.35
2022-12-12T04:21:58.592Z,1.21
2022-12-12T04:27:27.399Z,1.26
2022-12-12T04:32:36.977Z,1.42
2022-12-12T04:37:39.762Z,1.4
2022-12-12T04:42:43.114Z,1.31
2022-12-12T04:47:46.348Z,1.37
2022-12-12T04:52:49.416Z,1.43
2022-12-12T04:57:53.293Z,1.45
2022-12-12T05:02:56.306Z,1.29
2022-12-12T05:13:29.602Z,1.15
2022-12-12T05:18:32.532Z,1.03
2022-12-12T05:23:35.660Z,0.92
2022-12-12T05:28:39.019Z,1
2022-12-12T05:39:45.445Z,1.15
2022-12-12T05:44:48.738Z,1.1
2022-12-12T05:49:55.209Z,1.11
2022-12-12T05:54:58.563Z,1.15
2022-12-12T06:00:01.641Z,1.16
2022-12-12T06:10:13.155Z,1.08
2022-12-12T06:15:16.629Z,1.11
2022-12-12T06:20:19.841Z,1
2022-12-12T06:25:23.177Z,1.02
2022-12-12T06:30:26.314Z,0.96
2022-12-12T06:40:33.013Z,0.89
2022-12-12T06:45:35.697Z,0.98
2022-12-12T06:50:38.351Z,1.06
2022-12-12T06:55:41.381Z,0.97
2022-12-12T07:00:44.613Z,0.93
2022-12-12T07:05:47.819Z,0.89
2022-12-12T07:10:51.080Z,0.8
2022-12-12T07:15:54.522Z,0.87
2022-12-12T07:20:57.684Z,0.83
2022-12-12T07:26:00.912Z,0.84
2022-12-12T07:31:04.281Z,0.87
2022-12-12T07:36:07.464Z,0.82
2022-12-12T07:41:10.594Z,0.91
2022-12-12T07:46:14.037Z,0.9
2022-12-12T07:51:19.707Z,0.85
2022-12-12T07:56:25.132Z,0.95
2022-12-12T08:01:28.690Z,0.84
2022-12-12T08:06:31.762Z,0.93
2022-12-12T08:17:05.359Z,1.29
2022-12-12T08:27:38.523Z,1.2
2022-12-12T08:32:45.756Z,1.14
2022-12-12T08:43:19.464Z,1.23
2022-12-12T08:48:22.730Z,1.01
2022-12-12T08:53:26.145Z,1.05
2022-12-12T08:58:30.246Z,0.97
2022-12-12T09:03:33.717Z,1.14
2022-12-12T09:08:36.798Z,1.06
2022-12-12T09:13:43.293Z,1.02
2022-12-12T09:18:49.215Z,0.91
2022-12-12T09:23:49.745Z,0.96
2022-12-12T09:28:53.009Z,1.28
2022-12-12T09:33:56.492Z,1.13
2022-12-12T09:38:59.817Z,1.18
2022-12-12T09:44:02.774Z,1.37
2022-12-12T09:49:06.029Z,1.11
2022-12-12T09:54:09.535Z,1.22
2022-12-12T09:59:11.997Z,1.29
2022-12-12T10:04:15.402Z,1.29
2022-12-12T10:09:18.903Z,1.28
2022-12-12T10:14:22.078Z,1.3
2022-12-12T10:19:25.620Z,0.99
2022-12-12T10:24:28.677Z,0.62
2022-12-12T10:29:34.464Z,0.71
2022-12-12T10:34:35.480Z,0.91
2022-12-12T10:39:38.591Z,0.84
2022-12-12T10:44:46.976Z,0.86
2022-12-12T10:49:45.673Z,1.21
2022-12-12T10:54:48.990Z,1.01
2022-12-12T11:04:55.796Z,0.73
2022-12-12T11:10:02.778Z,0.51
2022-12-12T11:20:08.843Z,0.61
2022-12-12T11:25:12.514Z,0.78
2022-12-12T11:30:15.339Z,1.06
2022-12-12T11:35:18.915Z,1.3
2022-12-12T11:45:27.792Z,1.29
2022-12-12T11:50:30.745Z,1.13
2022-12-12T11:55:34.072Z,0.82
2022-12-12T12:06:07.261Z,0.22
2022-12-12T12:11:17.600Z,0.35
2022-12-12T12:16:21.000Z,0.19
2022-12-12T12:21:24.264Z,0.51
2022-12-12T12:26:27.674Z,0.58
2022-12-12T12:31:30.808Z,0.9
2022-12-12T12:36:34.200Z,0.5
2022-12-12T12:41:37.502Z,0.35
2022-12-12T12:46:40.811Z,0.45
2022-12-12T12:51:48.592Z,0.54
2022-12-12T12:56:47.346Z,0.34
2022-12-12T13:01:50.670Z,0.31
2022-12-12T13:07:02.943Z,0.33
2022-12-12T13:12:01.427Z,0.29
2022-12-12T13:17:05.030Z,0.29
2022-12-12T13:22:08.566Z,0.46
2022-12-12T13:27:11.721Z,0.5
2022-12-12T13:32:15.156Z,0.52
2022-12-12T13:37:18.511Z,0.84
2022-12-12T13:42:21.937Z,0.84
2022-12-12T13:47:25.225Z,0.77
2022-12-12T13:52:31.402Z,0.74
2022-12-12T13:57:37.886Z,0.55
2022-12-12T14:02:40.708Z,0.39
2022-12-12T14:07:44.121Z,0.23
2022-12-12T14:12:47.526Z,0.25
2022-12-12T14:17:50.838Z,0.27
2022-12-12T14:22:55.368Z,0.11
2022-12-12T14:27:58.711Z,0.24
2022-12-12T14:33:02.112Z,0.12
2022-12-12T14:38:10.594Z,0.12
2022-12-12T14:43:16.182Z,0.21
2022-12-12T14:48:17.701Z,0.18
2022-12-12T14:53:21.091Z,0.16
2022-12-12T14:58:24.169Z,0.17
2022-12-12T15:03:27.888Z,0.18
2022-12-12T15:08:31.310Z,0.26
2022-12-12T15:18:37.631Z,0.21
2022-12-12T15:23:40.941Z,0.18
2022-12-12T15:28:44.056Z,0.15
2022-12-12T15:33:47.174Z,0.13
2022-12-12T15:38:50.500Z,0.2
2022-12-12T15:43:53.888Z,0.24
2022-12-12T15:48:57.073Z,0.26
2022-12-12T15:54:00.334Z,0.24
2022-12-12T15:59:03.479Z,0.25
2022-12-12T16:04:06.987Z,0.37
2022-12-12T16:09:10.544Z,0.36
2022-12-12T16:14:15.761Z,0.2
2022-12-12T16:19:20.005Z,0.22
2022-12-12T16:24:23.662Z,0.18
2022-12-12T16:29:26.972Z,0.26
2022-12-12T16:34:30.152Z,0.26
2022-12-12T16:39:33.462Z,0.31
2022-12-12T16:44:37.225Z,0.25
2022-12-12T16:49:46.078Z,0.3
2022-12-12T16:54:53.430Z,0.31
2022-12-12T16:59:52.693Z,0.29
2022-12-12T17:04:55.984Z,0.31
2022-12-12T17:09:59.365Z,0.27
2022-12-12T17:15:09.303Z,0.24
2022-12-12T17:20:13.143Z,0.17
2022-12-12T17:25:16.133Z,0.28
2022-12-12T17:30:19.414Z,0.25
2022-12-12T17:40:58.432Z,0.32
2022-12-12T17:46:01.776Z,0.3
2022-12-12T18:02:11.211Z,0.3
2022-12-12T18:12:45.597Z,0.24
2022-12-12T18:17:48.650Z,0.13
2022-12-12T18:28:22.401Z,0.2
2022-12-12T18:33:25.800Z,0.19
2022-12-12T18:38:29.284Z,0.17
2022-12-12T18:43:32.577Z,0.17
2022-12-12T18:48:37.725Z,0.23
2022-12-12T18:58:47.580Z,0.15
2022-12-12T19:03:50.721Z,0.18
2022-12-12T19:08:54.119Z,0.15
2022-12-12T19:14:01.452Z,0.12
2022-12-12T19:24:35.419Z,0.26
2022-12-12T19:29:38.299Z,0.13
2022-12-12T19:34:50.435Z,0.09
2022-12-12T19:39:53.989Z,0.1
2022-12-12T19:44:56.639Z,0.12
2022-12-12T19:50:03.799Z,0.2
2022-12-12T19:55:05.555Z,0.19
2022-12-12T20:00:08.696Z,0.24
2022-12-12T20:05:11.363Z,0.3
2022-12-12T20:10:14.296Z,0.2
2022-12-12T20:15:16.640Z,0.39
2022-12-12T20:20:19.331Z,0.3
2022-12-12T20:25:21.920Z,0.13
2022-12-12T20:35:33.377Z,0.14
2022-12-12T20:40:36.047Z,0.31
2022-12-12T20:45:38.912Z,0.33
2022-12-12T20:50:41.538Z,0.37
2022-12-12T20:55:44.384Z,0.45
2022-12-12T21:00:53.035Z,0.59
2022-12-12T21:05:56.162Z,0.54
2022-12-12T21:10:58.681Z,0.42
2022-12-12T21:16:01.203Z,0.43
2022-12-12T21:21:03.860Z,0.35
2022-12-12T21:26:06.606Z,0.35
2022-12-12T21:31:09.310Z,0.37
2022-12-12T21:36:11.883Z,0.41
2022-12-12T21:41:14.359Z,0.22
2022-12-12T21:46:17.151Z,0.33
2022-12-12T21:51:19.659Z,0.3
2022-12-12T21:56:22.321Z,0.33
2022-12-12T22:01:25.158Z,0.41
2022-12-12T22:06:27.689Z,0.41
2022-12-12T22:11:34.068Z,0.42
2022-12-12T22:16:32.937Z,0.45
2022-12-12T22:21:39.488Z,0.44
2022-12-12T22:26:42.422Z,0.39
2022-12-12T22:31:45.025Z,0.28
2022-12-12T22:36:55.565Z,0.33
2022-12-12T22:41:58.792Z,0.28
2022-12-12T22:47:00.823Z,0.33
2022-12-12T22:52:03.757Z,0.18
2022-12-12T22:57:06.329Z,0.38
2022-12-12T23:02:08.799Z,0.33
2022-12-12T23:07:12.142Z,0.29
2022-12-12T23:12:14.815Z,0.3
2022-12-12T23:23:29.367Z,0.41
2022-12-12T23:28:31.857Z,0.24
2022-12-12T23:33:34.689Z,0.17
2022-12-12T23:38:41.417Z,0.19
2022-12-12T23:43:44.127Z,0.27
2022-12-12T23:48:46.423Z,0.26
2022-12-12T23:53:49.012Z,0.34
2022-12-12T23:58:51.796Z,0.34
